Terminal Aerodrome Forecast
Issued by NWS

Home | Current Version | Previous Version | Text Only | Print | Product List | Glossary On
Versions: 1 2 3 4 5 6 7 8 9 10 11 12 13 14 15 16 17 18 19 20 21
088
FTUS45 KTFX 241817 AAB
TAFHVR
TAF AMD
KHVR 241817Z 2418/2518 VRB03KT 5SM BR BKN010 OVC040
      TEMPO 2418/2421 1SM -SN BR SCT008 BKN010
     FM250300 VRB04KT 2SM BR OVC010=

USA.gov is the U.S. government's official web portal to all federal, state and local government web resources and services.